G.commander — DSQR5 — position and weather

sailwx.info

Track history (hours):
 
Tides and Currents Weather Stations Pressure Air Temp Water Temp Dewpoint Dewpoint Depression Visibility Wind Speed Wind Dir Waves Ship Positions

G.commander

Last reported at 2015-Jul-04 00:17 UTC. Time now 2015-Jul-06 19:59 UTC.
Position N 01°11' E 103°34'.

Length 230 m; draft 8.7 m.

Type: Tanker. MMSI: 441681000.

Date/timePositionNaut miles runAvg speedWind from/ knotsBaromVisibWave heightAir tempDewpointWater temp
2015-Jul-04 00:17N 01°11' E 103°34'911.6
2015-Jul-03 23:33N 01°10' E 103°42'1 0.6
2015-Jul-03 22:18N 01°10' E 103°43'0 0.0
2015-Jul-03 20:24N 01°10' E 103°43'0 0.0
2015-Jul-03 18:15N 01°10' E 103°43'0 0.0
2015-Jul-03 16:18N 01°10' E 103°43'0 0.0
2015-Jul-03 09:24N 01°10' E 103°43'0 0.5
2015-Jul-03 08:33N 01°10' E 103°42'5 5.4
2015-Jul-03 07:33N 01°11' E 103°48'8 7.6
2015-Jul-03 06:34N 01°14' E 103°55'9 8.8
2015-Jul-03 05:33N 01°16' E 104°03'11 9.6
2015-Jul-03 04:27N 01°18' E 104°14'  
Track history (hours):
 
Tides and Currents Weather Stations Pressure Air Temp Water Temp Dewpoint Dewpoint Depression Visibility Wind Speed Wind Dir Waves Ship Positions

G.commander

Last reported at 2015-Jul-04 00:17 UTC. Time now 2015-Jul-06 19:59 UTC.
Position N 01°11' E 103°34'.

Length 230 m; draft 8.7 m.

Type: Tanker. MMSI: 441681000.

Date/timePositionNaut miles runAvg speedWind from/ knotsBaromVisibWave heightAir tempDewpointWater temp
2015-Jul-04 00:17N 01°11' E 103°34'911.6
2015-Jul-03 23:33N 01°10' E 103°42'1 0.6
2015-Jul-03 22:18N 01°10' E 103°43'0 0.0
2015-Jul-03 20:24N 01°10' E 103°43'0 0.0
2015-Jul-03 18:15N 01°10' E 103°43'0 0.0
2015-Jul-03 16:18N 01°10' E 103°43'0 0.0
2015-Jul-03 09:24N 01°10' E 103°43'0 0.5
2015-Jul-03 08:33N 01°10' E 103°42'5 5.4
2015-Jul-03 07:33N 01°11' E 103°48'8 7.6
2015-Jul-03 06:34N 01°14' E 103°55'9 8.8
2015-Jul-03 05:33N 01°16' E 104°03'11 9.6
2015-Jul-03 04:27N 01°18' E 104°14'  

Dump ship's entire track history